Time;durP1;ratioP1;P1;durP2;ratioP2;P2;SDS_P1;SDS_P2;PMS_P1;PMS_P2;Temp;Humidity;BMP_temperature;BMP_pressure;BME280_temperature;BME280_humidity;BME280_pressure;Samples;Min_cycle;Max_cycle;Signal;HPM_P1;HPM_P2
2021/05/25 00:01:44;;;;;;;4.70;2.88;;;;;;;;;;5031046;28;20132;-82
2021/05/25 00:04:11;;;;;;;6.45;3.45;;;;;;;;;;5030842;28;20104;-83
2021/05/25 00:06:38;;;;;;;8.88;3.30;;;;;;;;;;5027260;28;20463;-83
2021/05/25 00:09:06;;;;;;;8.50;2.88;;;;;;;;;;5028681;28;20463;-83
2021/05/25 00:11:33;;;;;;;9.68;3.17;;;;;;;;;;5013200;28;20073;-83
2021/05/25 00:14:03;;;;;;;10.25;2.90;;;;;;;;;;5030134;28;20140;-83
2021/05/25 00:16:30;;;;;;;7.40;2.33;;;;;;;;;;5010655;28;20046;-84
2021/05/25 00:18:58;;;;;;;11.35;3.78;;;;;;;;;;5034280;28;20092;-83
2021/05/25 00:21:25;;;;;;;9.95;3.08;;;;;;;;;;5011282;28;20093;-82
2021/05/25 00:23:53;;;;;;;11.13;2.70;;;;;;;;;;5031750;28;20049;-82
2021/05/25 00:26:20;;;;;;;6.70;2.85;;;;;;;;;;5031737;28;20049;-83
2021/05/25 00:28:47;;;;;;;7.72;2.78;;;;;;;;;;5031698;28;20521;-83
2021/05/25 00:31:15;;;;;;;9.73;3.17;;;;;;;;;;5025661;28;20042;-82
2021/05/25 00:33:42;;;;;;;10.00;3.22;;;;;;;;;;5029500;28;20081;-83
2021/05/25 00:36:14;;;;;;;9.27;3.03;;;;;;;;;;5030808;28;20516;-83
2021/05/25 00:38:41;;;;;;;6.53;2.72;;;;;;;;;;5030772;28;20057;-82
2021/05/25 00:41:09;;;;;;;7.63;2.60;;;;;;;;;;5020005;28;20142;-82
2021/05/25 00:43:37;;;;;;;9.13;2.95;;;;;;;;;;5012175;28;20105;-83
2021/05/25 00:46:04;;;;;;;9.40;3.17;;;;;;;;;;5013555;28;20069;-83
2021/05/25 00:48:31;;;;;;;5.35;2.97;;;;;;;;;;5013107;28;20076;-83
2021/05/25 00:50:58;;;;;;;6.05;3.10;;;;;;;;;;5026722;28;20112;-82
2021/05/25 00:53:27;;;;;;;9.60;2.97;;;;;;;;;;5019136;28;20535;-83
2021/05/25 00:55:54;;;;;;;6.00;3.05;;;;;;;;;;5009989;28;20100;-83
2021/05/25 00:58:22;;;;;;;9.88;2.97;;;;;;;;;;5010966;28;20132;-83
2021/05/25 01:00:50;;;;;;;5.72;2.60;;;;;;;;;;5014803;28;20099;-82
2021/05/25 01:03:19;;;;;;;6.78;2.92;;;;;;;;;;5030361;28;20073;-83
2021/05/25 01:05:47;;;;;;;7.95;2.60;;;;;;;;;;5030113;28;20057;-83
2021/05/25 01:08:14;;;;;;;9.25;3.13;;;;;;;;;;5027789;28;20092;-82
2021/05/25 01:10:46;;;;;;;7.10;3.15;;;;;;;;;;5022297;28;20140;-83
2021/05/25 01:13:18;;;;;;;5.28;3.15;;;;;;;;;;5009970;28;20049;-83
2021/05/25 01:15:46;;;;;;;8.05;3.47;;;;;;;;;;5030412;28;20095;-82
2021/05/25 01:18:16;;;;;;;6.95;3.13;;;;;;;;;;5018166;28;20046;-83
2021/05/25 01:20:46;;;;;;;10.57;3.55;;;;;;;;;;5012016;28;20049;-82
2021/05/25 01:23:13;;;;;;;11.38;3.00;;;;;;;;;;5031331;28;20075;-83
2021/05/25 01:25:42;;;;;;;7.00;2.90;;;;;;;;;;5026467;28;20104;-82
2021/05/25 01:28:11;;;;;;;12.00;3.42;;;;;;;;;;5010750;28;20096;-82
2021/05/25 01:30:40;;;;;;;11.80;3.08;;;;;;;;;;5021022;28;20077;-82
2021/05/25 01:33:10;;;;;;;3.67;2.70;;;;;;;;;;5025299;28;20398;-81
2021/05/25 01:35:38;;;;;;;7.30;3.17;;;;;;;;;;5011242;28;20046;-82
2021/05/25 01:38:06;;;;;;;9.30;3.65;;;;;;;;;;5011415;28;20077;-81
2021/05/25 01:40:33;;;;;;;4.70;3.03;;;;;;;;;;5010815;28;20132;-81
2021/05/25 01:43:00;;;;;;;12.88;3.08;;;;;;;;;;5015134;28;20137;-81
2021/05/25 01:45:29;;;;;;;6.60;3.25;;;;;;;;;;5023846;28;20079;-81
2021/05/25 01:47:57;;;;;;;7.55;3.53;;;;;;;;;;5030884;28;20054;-81
2021/05/25 01:50:27;;;;;;;8.43;3.03;;;;;;;;;;5029627;28;20084;-80
2021/05/25 01:53:02;;;;;;;6.57;3.53;;;;;;;;;;5037972;28;20111;-81
2021/05/25 01:55:36;;;;;;;7.70;2.90;;;;;;;;;;5024028;28;20044;-81
2021/05/25 01:58:12;;;;;;;11.70;3.58;;;;;;;;;;5029750;28;20719;-81
2021/05/25 02:00:40;;;;;;;5.43;3.10;;;;;;;;;;5021907;28;20053;-81
2021/05/25 02:03:08;;;;;;;9.30;3.53;;;;;;;;;;5020566;28;20053;-81
2021/05/25 02:05:35;;;;;;;9.38;3.45;;;;;;;;;;5033684;28;20049;-81
2021/05/25 02:08:03;;;;;;;4.70;3.55;;;;;;;;;;5034117;28;20057;-81
2021/05/25 02:10:32;;;;;;;6.68;3.50;;;;;;;;;;5032922;28;20107;-81
2021/05/25 02:13:01;;;;;;;8.43;3.90;;;;;;;;;;5027499;28;20124;-81
2021/05/25 02:15:28;;;;;;;15.02;3.60;;;;;;;;;;5033627;28;20076;-81
2021/05/25 02:17:55;;;;;;;5.70;3.67;;;;;;;;;;5033524;28;20046;-81
2021/05/25 02:20:23;;;;;;;7.10;3.72;;;;;;;;;;5034380;28;20132;-81
2021/05/25 02:22:50;;;;;;;9.68;3.17;;;;;;;;;;5021768;28;20058;-82
2021/05/25 02:25:17;;;;;;;6.45;3.53;;;;;;;;;;5026646;28;20640;-80
2021/05/25 02:27:44;;;;;;;6.93;3.05;;;;;;;;;;5028247;28;20084;-81
2021/05/25 02:30:12;;;;;;;9.30;3.35;;;;;;;;;;5012659;28;20081;-81
2021/05/25 02:32:39;;;;;;;12.75;3.75;;;;;;;;;;5019747;28;20081;-81
2021/05/25 02:35:06;;;;;;;8.10;3.80;;;;;;;;;;5030948;28;20077;-81
2021/05/25 02:37:34;;;;;;;8.57;3.80;;;;;;;;;;5025738;28;20046;-81
2021/05/25 02:40:01;;;;;;;11.13;4.10;;;;;;;;;;5013184;28;20134;-80
2021/05/25 02:42:29;;;;;;;8.80;3.90;;;;;;;;;;5042366;28;20084;-81
2021/05/25 02:44:57;;;;;;;14.27;4.28;;;;;;;;;;5052505;28;20103;-81
2021/05/25 02:47:24;;;;;;;13.10;4.10;;;;;;;;;;5045316;28;20133;-81
2021/05/25 02:49:51;;;;;;;12.77;4.68;;;;;;;;;;5032471;28;20095;-81
2021/05/25 02:52:19;;;;;;;8.80;4.60;;;;;;;;;;5033582;28;20133;-81
2021/05/25 02:54:46;;;;;;;14.02;4.72;;;;;;;;;;5033895;28;20104;-81
2021/05/25 02:57:13;;;;;;;10.45;4.25;;;;;;;;;;5034353;28;20080;-80
2021/05/25 02:59:40;;;;;;;7.90;4.28;;;;;;;;;;5032591;28;20046;-80
2021/05/25 03:02:08;;;;;;;7.22;4.10;;;;;;;;;;5032014;28;20099;-80
2021/05/25 03:04:35;;;;;;;16.80;4.78;;;;;;;;;;5021574;28;20127;-81
2021/05/25 03:07:03;;;;;;;10.35;4.40;;;;;;;;;;5018422;28;20068;-81
2021/05/25 03:09:30;;;;;;;9.25;4.93;;;;;;;;;;5032574;28;20566;-80
2021/05/25 03:11:58;;;;;;;8.80;4.95;;;;;;;;;;5033014;28;20103;-80
2021/05/25 03:14:26;;;;;;;11.98;4.53;;;;;;;;;;5031953;28;20295;-81
2021/05/25 03:16:53;;;;;;;11.05;5.57;;;;;;;;;;5027325;28;20046;-80
2021/05/25 03:19:20;;;;;;;6.65;4.38;;;;;;;;;;5013679;28;20070;-81
2021/05/25 03:21:47;;;;;;;11.05;4.60;;;;;;;;;;5022856;28;20119;-81
2021/05/25 03:24:16;;;;;;;5.88;4.10;;;;;;;;;;5031670;28;20517;-81
2021/05/25 03:26:45;;;;;;;8.00;4.03;;;;;;;;;;5030989;28;20077;-82
2021/05/25 03:29:12;;;;;;;9.35;4.40;;;;;;;;;;5032106;28;20050;-81
2021/05/25 03:31:40;;;;;;;13.15;4.80;;;;;;;;;;5013635;28;20049;-81
2021/05/25 03:34:07;;;;;;;10.27;4.72;;;;;;;;;;5011890;28;20081;-81
2021/05/25 03:36:34;;;;;;;11.20;5.82;;;;;;;;;;5011812;28;20136;-81
2021/05/25 03:39:01;;;;;;;13.32;5.00;;;;;;;;;;5012691;28;20642;-81
2021/05/25 03:41:29;;;;;;;15.57;4.85;;;;;;;;;;5013193;28;20552;-81
2021/05/25 03:43:56;;;;;;;9.20;5.07;;;;;;;;;;5011627;28;20081;-81
2021/05/25 03:46:23;;;;;;;8.25;4.75;;;;;;;;;;5012336;28;20097;-82
2021/05/25 03:48:50;;;;;;;10.73;5.15;;;;;;;;;;5032573;28;20045;-82
2021/05/25 03:51:19;;;;;;;10.38;4.78;;;;;;;;;;5031783;28;20088;-81
2021/05/25 03:53:46;;;;;;;10.40;4.97;;;;;;;;;;5031046;28;20072;-81
2021/05/25 03:58:50;;;;;;;10.82;5.25;;;;;;;;;;5053214;28;20088;-81
2021/05/25 04:01:25;;;;;;;10.63;5.10;;;;;;;;;;5032167;28;20084;-84
2021/05/25 04:03:53;;;;;;;11.33;4.93;;;;;;;;;;5013432;28;20054;-81
2021/05/25 04:06:20;;;;;;;14.10;5.90;;;;;;;;;;5026292;28;20320;-83
2021/05/25 04:08:48;;;;;;;9.07;4.78;;;;;;;;;;5031828;28;20505;-82
2021/05/25 04:11:16;;;;;;;8.55;4.78;;;;;;;;;;5032520;28;20077;-82
2021/05/25 04:13:45;;;;;;;10.40;5.18;;;;;;;;;;5031055;28;20076;-84
2021/05/25 04:16:13;;;;;;;11.60;5.22;;;;;;;;;;5031260;28;20069;-85
2021/05/25 04:18:41;;;;;;;11.93;5.72;;;;;;;;;;5026627;28;20058;-86
2021/05/25 04:21:10;;;;;;;9.25;4.70;;;;;;;;;;5037428;28;20103;-86
2021/05/25 04:23:38;;;;;;;7.88;4.45;;;;;;;;;;5027525;28;20050;-81
2021/05/25 04:26:06;;;;;;;10.30;4.80;;;;;;;;;;5024361;28;20112;-86
2021/05/25 04:28:40;;;;;;;5.93;4.32;;;;;;;;;;5025154;28;20069;-85
2021/05/25 04:31:07;;;;;;;8.23;4.97;;;;;;;;;;5038656;28;20041;-85
2021/05/25 04:33:42;;;;;;;9.40;4.82;;;;;;;;;;5039931;28;20049;-86
2021/05/25 04:36:18;;;;;;;9.13;4.50;;;;;;;;;;5025489;28;20052;-86
2021/05/25 04:38:48;;;;;;;9.05;4.57;;;;;;;;;;5023087;28;20135;-85
2021/05/25 04:41:18;;;;;;;9.38;5.28;;;;;;;;;;5040891;28;20056;-87
2021/05/25 04:43:46;;;;;;;7.55;4.45;;;;;;;;;;5026351;28;20061;-82
2021/05/25 04:46:13;;;;;;;11.13;4.55;;;;;;;;;;5033804;28;20045;-82
2021/05/25 04:48:40;;;;;;;9.38;4.63;;;;;;;;;;5025557;28;20103;-82
2021/05/25 04:51:08;;;;;;;9.90;4.70;;;;;;;;;;5028460;28;20045;-84
2021/05/25 04:53:35;;;;;;;7.53;4.78;;;;;;;;;;5030996;28;20649;-83
2021/05/25 04:56:02;;;;;;;13.13;4.93;;;;;;;;;;5031847;28;20445;-85
2021/05/25 04:58:30;;;;;;;5.60;4.22;;;;;;;;;;5030560;28;20058;-82
2021/05/25 05:01:04;;;;;;;8.32;4.53;;;;;;;;;;5031133;28;20065;-85
2021/05/25 05:03:35;;;;;;;8.52;4.22;;;;;;;;;;5028085;28;20399;-85
2021/05/25 05:06:03;;;;;;;16.20;4.20;;;;;;;;;;5028855;28;20045;-86
2021/05/25 05:08:31;;;;;;;10.55;3.72;;;;;;;;;;5031610;28;20046;-85
2021/05/25 05:11:02;;;;;;;8.65;3.67;;;;;;;;;;5022747;28;20601;-85
2021/05/25 05:13:41;;;;;;;5.43;3.15;;;;;;;;;;5032463;28;20072;-92
2021/05/25 05:16:12;;;;;;;5.05;2.70;;;;;;;;;;5038942;28;20445;-88
2021/05/25 05:18:41;;;;;;;9.00;3.85;;;;;;;;;;5034950;28;20050;-92
2021/05/25 05:21:24;;;;;;;4.82;2.72;;;;;;;;;;5033539;28;20061;-87
2021/05/25 05:24:05;;;;;;;7.60;2.60;;;;;;;;;;5027349;28;20540;-89
2021/05/25 05:26:32;;;;;;;7.35;2.50;;;;;;;;;;5026119;28;20092;-88
2021/05/25 05:29:00;;;;;;;5.80;2.65;;;;;;;;;;5031540;28;20095;-81
2021/05/25 05:31:27;;;;;;;7.20;2.65;;;;;;;;;;5032196;28;20085;-83
2021/05/25 05:33:54;;;;;;;4.35;2.42;;;;;;;;;;5031203;28;20088;-83
2021/05/25 05:36:23;;;;;;;3.15;2.28;;;;;;;;;;5030269;28;20136;-83
2021/05/25 05:38:51;;;;;;;5.97;2.33;;;;;;;;;;5030396;28;20079;-83
2021/05/25 05:41:18;;;;;;;5.05;2.15;;;;;;;;;;5029282;28;20072;-80
2021/05/25 05:43:45;;;;;;;6.28;2.28;;;;;;;;;;5030917;28;20112;-81
2021/05/25 05:46:16;;;;;;;6.20;2.58;;;;;;;;;;5026967;28;20104;-84
2021/05/25 05:48:43;;;;;;;9.45;2.63;;;;;;;;;;5011579;28;20077;-84
2021/05/25 05:51:11;;;;;;;4.03;2.38;;;;;;;;;;5011193;28;20050;-84
2021/05/25 05:53:38;;;;;;;6.72;2.05;;;;;;;;;;5012775;28;20134;-84
2021/05/25 05:56:06;;;;;;;10.07;2.38;;;;;;;;;;5010655;28;20089;-84
2021/05/25 05:58:33;;;;;;;8.65;2.28;;;;;;;;;;5010408;28;20517;-84
2021/05/25 06:01:01;;;;;;;7.10;2.30;;;;;;;;;;5011141;28;20086;-84
2021/05/25 06:03:28;;;;;;;4.95;2.65;;;;;;;;;;5010429;28;20054;-83
2021/05/25 06:05:56;;;;;;;4.60;2.22;;;;;;;;;;5020244;28;20054;-83
2021/05/25 06:08:26;;;;;;;8.27;2.63;;;;;;;;;;5030530;28;20581;-84
2021/05/25 06:10:54;;;;;;;5.68;2.28;;;;;;;;;;5025851;28;20774;-84
2021/05/25 06:13:25;;;;;;;10.23;2.22;;;;;;;;;;5020184;28;20050;-84
2021/05/25 06:15:57;;;;;;;4.28;1.92;;;;;;;;;;5029251;28;20437;-83
2021/05/25 06:18:25;;;;;;;2.35;2.00;;;;;;;;;;5031749;28;20560;-84
2021/05/25 06:21:04;;;;;;;7.53;2.10;;;;;;;;;;5029221;28;20461;-84
2021/05/25 06:23:34;;;;;;;6.88;1.98;;;;;;;;;;5030171;28;20077;-84
2021/05/25 06:26:03;;;;;;;5.70;2.20;;;;;;;;;;5030141;28;20085;-84
2021/05/25 06:28:31;;;;;;;10.40;2.45;;;;;;;;;;5030302;28;20045;-84
2021/05/25 06:30:59;;;;;;;6.38;2.50;;;;;;;;;;5018526;28;20526;-81
2021/05/25 06:33:26;;;;;;;5.55;2.55;;;;;;;;;;5025942;28;20653;-80
2021/05/25 06:35:55;;;;;;;9.00;2.63;;;;;;;;;;5030111;28;20046;-81
2021/05/25 06:38:25;;;;;;;3.63;2.20;;;;;;;;;;5030355;28;20050;-81
2021/05/25 06:40:54;;;;;;;4.18;2.35;;;;;;;;;;5025973;28;20061;-81
2021/05/25 06:43:21;;;;;;;4.72;2.70;;;;;;;;;;5022461;28;20045;-81
2021/05/25 06:45:51;;;;;;;4.47;2.20;;;;;;;;;;5031178;28;20061;-81
2021/05/25 06:48:18;;;;;;;7.28;2.30;;;;;;;;;;5036356;28;20119;-81
2021/05/25 06:50:46;;;;;;;6.30;2.60;;;;;;;;;;5033800;28;20099;-81
2021/05/25 06:53:15;;;;;;;7.80;2.33;;;;;;;;;;5033503;28;20757;-81
2021/05/25 06:55:44;;;;;;;7.20;2.10;;;;;;;;;;5034135;28;20049;-81
2021/05/25 06:58:13;;;;;;;4.88;2.47;;;;;;;;;;5034242;28;20107;-82
2021/05/25 07:00:41;;;;;;;16.42;3.78;;;;;;;;;;5033921;28;20042;-81
2021/05/25 07:03:10;;;;;;;3.40;2.28;;;;;;;;;;5033860;28;20054;-82
2021/05/25 07:05:38;;;;;;;4.93;2.38;;;;;;;;;;5033773;28;20100;-81
2021/05/25 07:08:08;;;;;;;3.97;2.15;;;;;;;;;;5034257;28;20049;-82
2021/05/25 07:10:35;;;;;;;5.45;3.08;;;;;;;;;;5035093;28;20745;-81
2021/05/25 07:13:03;;;;;;;10.18;2.30;;;;;;;;;;5029903;28;20050;-81
2021/05/25 07:15:31;;;;;;;4.30;2.22;;;;;;;;;;5011700;28;20046;-80
2021/05/25 07:18:01;;;;;;;3.25;1.70;;;;;;;;;;5013859;28;20050;-80
2021/05/25 07:20:31;;;;;;;6.50;2.10;;;;;;;;;;5013512;28;20050;-83
2021/05/25 07:22:58;;;;;;;6.22;2.10;;;;;;;;;;5014125;28;20700;-82
2021/05/25 07:25:26;;;;;;;5.32;1.90;;;;;;;;;;5012976;28;20054;-82
2021/05/25 07:27:54;;;;;;;5.25;1.50;;;;;;;;;;5014029;28;20050;-84
2021/05/25 07:30:21;;;;;;;4.03;1.45;;;;;;;;;;5012762;28;20077;-84
2021/05/25 07:32:49;;;;;;;3.50;1.20;;;;;;;;;;5023738;28;20075;-84
2021/05/25 07:35:16;;;;;;;4.28;1.35;;;;;;;;;;5032318;28;20034;-81
2021/05/25 07:37:43;;;;;;;4.43;1.45;;;;;;;;;;5032314;28;20045;-85
2021/05/25 07:40:11;;;;;;;17.60;3.45;;;;;;;;;;5029430;28;20053;-83
2021/05/25 07:42:39;;;;;;;356.38;42.70;;;;;;;;;;5026584;28;20075;-85
2021/05/25 07:45:06;;;;;;;4.88;1.63;;;;;;;;;;5032257;28;20100;-81
2021/05/25 07:47:34;;;;;;;5.97;2.00;;;;;;;;;;5032252;28;20092;-82
2021/05/25 07:50:15;;;;;;;3.65;1.63;;;;;;;;;;5031861;28;20053;-79
2021/05/25 07:52:45;;;;;;;4.68;1.80;;;;;;;;;;5031917;28;20046;-81
2021/05/25 07:55:15;;;;;;;2.78;1.80;;;;;;;;;;5032113;28;20054;-82
2021/05/25 07:57:42;;;;;;;3.65;1.90;;;;;;;;;;5033253;28;20077;-84
2021/05/25 08:00:12;;;;;;;2.47;1.80;;;;;;;;;;5032313;28;20045;-83
2021/05/25 08:02:39;;;;;;;2.92;1.77;;;;;;;;;;5030589;28;20612;-83
2021/05/25 08:05:07;;;;;;;5.68;1.80;;;;;;;;;;5032001;28;20081;-83
2021/05/25 08:07:35;;;;;;;2.33;1.27;;;;;;;;;;5032729;28;20053;-83
2021/05/25 08:10:04;;;;;;;5.13;1.90;;;;;;;;;;5030962;28;20053;-83
2021/05/25 08:12:32;;;;;;;2.72;1.40;;;;;;;;;;5030740;28;20103;-84
2021/05/25 08:15:02;;;;;;;1.80;1.45;;;;;;;;;;5020148;28;20050;-82
2021/05/25 08:20:14;;;;;;;3.08;1.50;;;;;;;;;;5026281;28;20053;-83
2021/05/25 08:22:42;;;;;;;3.38;1.45;;;;;;;;;;5032012;28;20144;-82
2021/05/25 08:25:11;;;;;;;2.17;1.38;;;;;;;;;;5032001;28;20582;-83
2021/05/25 08:27:41;;;;;;;3.40;1.27;;;;;;;;;;5032135;28;20727;-84
2021/05/25 08:30:15;;;;;;;3.60;1.85;;;;;;;;;;5031153;28;20120;-83
2021/05/25 08:32:43;;;;;;;2.50;1.48;;;;;;;;;;5031776;28;20596;-83
2021/05/25 08:35:34;;;;;;;8.85;2.33;;;;;;;;;;5030146;28;20557;-84
2021/05/25 08:38:03;;;;;;;4.00;1.83;;;;;;;;;;5031853;28;20072;-84
2021/05/25 08:40:31;;;;;;;5.78;1.40;;;;;;;;;;5030349;28;20082;-83
2021/05/25 08:42:59;;;;;;;4.80;1.90;;;;;;;;;;5030346;28;20115;-84
2021/05/25 08:45:26;;;;;;;6.22;1.75;;;;;;;;;;5031218;28;20912;-84
2021/05/25 08:47:56;;;;;;;3.08;1.45;;;;;;;;;;5030424;28;20080;-83
2021/05/25 08:50:43;;;;;;;4.57;1.58;;;;;;;;;;5030421;28;20049;-85
2021/05/25 08:53:10;;;;;;;4.07;1.88;;;;;;;;;;5030688;28;20709;-85
2021/05/25 08:55:39;;;;;;;2.60;1.65;;;;;;;;;;5029624;28;20080;-84
2021/05/25 08:58:06;;;;;;;6.18;1.90;;;;;;;;;;5029824;28;20136;-83
2021/05/25 09:00:34;;;;;;;5.03;1.90;;;;;;;;;;5029838;28;20453;-84
2021/05/25 09:03:01;;;;;;;2.10;1.60;;;;;;;;;;5031626;28;20111;-84
2021/05/25 09:05:29;;;;;;;6.68;1.73;;;;;;;;;;5029720;28;20054;-85
2021/05/25 09:07:59;;;;;;;5.63;2.00;;;;;;;;;;5030918;28;20100;-85
2021/05/25 09:10:32;;;;;;;3.75;2.35;;;;;;;;;;5030084;28;20085;-85
2021/05/25 09:13:00;;;;;;;6.43;2.10;;;;;;;;;;5029661;28;20077;-85
2021/05/25 09:15:38;;;;;;;4.03;1.30;;;;;;;;;;5029791;28;20526;-85
2021/05/25 09:18:08;;;;;;;2.90;1.50;;;;;;;;;;5029512;28;20095;-85
2021/05/25 09:20:38;;;;;;;4.78;1.85;;;;;;;;;;5029807;28;20100;-86
2021/05/25 09:23:06;;;;;;;2.83;1.45;;;;;;;;;;5031167;28;20164;-85
2021/05/25 09:25:34;;;;;;;5.32;1.45;;;;;;;;;;5034458;28;20085;-85
2021/05/25 09:28:14;;;;;;;3.75;1.77;;;;;;;;;;5010136;28;20177;-84
2021/05/25 09:30:42;;;;;;;10.45;1.95;;;;;;;;;;5011338;28;20088;-85
2021/05/25 09:33:10;;;;;;;8.55;1.95;;;;;;;;;;5010149;28;20131;-83
2021/05/25 09:35:40;;;;;;;4.60;1.50;;;;;;;;;;5011377;28;20077;-84
2021/05/25 09:38:09;;;;;;;2.30;1.50;;;;;;;;;;5010121;28;20089;-85
2021/05/25 09:40:37;;;;;;;1.85;1.23;;;;;;;;;;5010301;28;20077;-84
2021/05/25 09:43:11;;;;;;;1.33;1.23;;;;;;;;;;5010862;28;20108;-84
2021/05/25 09:45:53;;;;;;;1.65;1.48;;;;;;;;;;5010193;28;20489;-85
2021/05/25 09:48:25;;;;;;;5.97;1.90;;;;;;;;;;5010126;28;20054;-84
2021/05/25 09:50:56;;;;;;;2.42;1.33;;;;;;;;;;5043433;28;20111;-85
2021/05/25 09:53:25;;;;;;;11.27;1.90;;;;;;;;;;5027416;28;20073;-84
2021/05/25 09:55:53;;;;;;;2.80;1.85;;;;;;;;;;5010053;28;20050;-85
2021/05/25 09:58:24;;;;;;;3.95;1.42;;;;;;;;;;5011493;28;20046;-89
2021/05/25 10:00:52;;;;;;;6.85;1.48;;;;;;;;;;5030184;28;20120;-86
2021/05/25 10:03:26;;;;;;;3.70;1.63;;;;;;;;;;5029996;28;20123;-88
2021/05/25 10:05:55;;;;;;;3.10;1.85;;;;;;;;;;5024710;28;20558;-88
2021/05/25 10:08:23;;;;;;;2.50;1.38;;;;;;;;;;5009834;28;20056;-87
2021/05/25 10:10:54;;;;;;;2.08;1.48;;;;;;;;;;5011335;28;20050;-87
2021/05/25 10:13:22;;;;;;;2.83;1.50;;;;;;;;;;5009892;28;20060;-88
2021/05/25 10:15:51;;;;;;;1.80;1.40;;;;;;;;;;5011482;28;20046;-88
2021/05/25 10:20:58;;;;;;;3.83;1.85;;;;;;;;;;5014010;28;20470;-87
2021/05/25 10:23:27;;;;;;;6.60;1.60;;;;;;;;;;5020487;28;20753;-87
2021/05/25 10:25:57;;;;;;;6.60;1.92;;;;;;;;;;5049903;28;20475;-86
2021/05/25 10:28:25;;;;;;;2.58;1.80;;;;;;;;;;5034999;28;20145;-87
2021/05/25 10:30:52;;;;;;;3.83;1.90;;;;;;;;;;5034258;28;20089;-85
2021/05/25 10:33:21;;;;;;;4.25;2.10;;;;;;;;;;5049402;28;20065;-89
2021/05/25 10:36:04;;;;;;;3.58;1.90;;;;;;;;;;5029699;28;20088;-85
2021/05/25 10:38:33;;;;;;;4.57;1.90;;;;;;;;;;5024310;28;20072;-87
2021/05/25 10:41:01;;;;;;;6.32;2.05;;;;;;;;;;5033310;28;20085;-88
2021/05/25 10:43:33;;;;;;;5.82;1.95;;;;;;;;;;5034295;28;20057;-88
2021/05/25 10:46:11;;;;;;;5.88;1.60;;;;;;;;;;5032978;28;20049;-88
2021/05/25 10:48:57;;;;;;;3.40;1.95;;;;;;;;;;5034094;28;20057;-87
2021/05/25 10:51:24;;;;;;;;;;;;;;;;;;5034488;28;20556;-86
2021/05/25 10:54:11;;;;;;;4.32;1.77;;;;;;;;;;5032155;28;19928;-85
2021/05/25 10:56:38;;;;;;;2.25;1.55;;;;;;;;;;5042101;28;20129;-86
2021/05/25 10:59:05;;;;;;;4.05;1.83;;;;;;;;;;5032787;28;20052;-86
2021/05/25 11:01:36;;;;;;;4.22;1.55;;;;;;;;;;5033752;28;20517;-87
2021/05/25 11:04:11;;;;;;;2.35;1.60;;;;;;;;;;5032529;28;20053;-86
2021/05/25 11:06:44;;;;;;;6.82;2.05;;;;;;;;;;5031338;28;20053;-87
2021/05/25 11:09:28;;;;;;;6.70;2.47;;;;;;;;;;5025730;28;20744;-87
2021/05/25 11:12:15;;;;;;;2.88;1.42;;;;;;;;;;5026538;28;20156;-87
2021/05/25 11:15:03;;;;;;;1.90;1.27;;;;;;;;;;5028929;28;20092;-87
2021/05/25 11:17:34;;;;;;;6.80;1.40;;;;;;;;;;5012780;28;20131;-86
2021/05/25 11:20:20;;;;;;;7.28;2.38;;;;;;;;;;5012574;28;20141;-88
2021/05/25 11:22:49;;;;;;;9.93;2.55;;;;;;;;;;5013527;28;20053;-87
2021/05/25 11:25:36;;;;;;;4.07;1.40;;;;;;;;;;5029922;28;20083;-87
2021/05/25 11:28:04;;;;;;;4.13;1.65;;;;;;;;;;5033387;28;20136;-87
2021/05/25 11:30:37;;;;;;;7.35;1.65;;;;;;;;;;5032364;28;20049;-85
2021/05/25 11:33:06;;;;;;;4.55;1.30;;;;;;;;;;5027254;28;20525;-86
2021/05/25 11:35:34;;;;;;;5.38;1.30;;;;;;;;;;5011881;28;20100;-86
2021/05/25 11:38:03;;;;;;;2.45;1.35;;;;;;;;;;5021690;28;20110;-84
2021/05/25 11:40:31;;;;;;;6.10;1.25;;;;;;;;;;5031560;28;20427;-85
2021/05/25 11:42:59;;;;;;;3.17;1.45;;;;;;;;;;5032447;28;20053;-83
2021/05/25 11:45:27;;;;;;;2.53;1.10;;;;;;;;;;5032832;28;20171;-83
2021/05/25 11:47:58;;;;;;;4.80;1.10;;;;;;;;;;5031897;28;20694;-84
2021/05/25 11:50:26;;;;;;;5.18;1.42;;;;;;;;;;5031277;28;20049;-84
2021/05/25 11:53:03;;;;;;;2.38;1.30;;;;;;;;;;5033034;28;20057;-85
2021/05/25 11:55:32;;;;;;;4.35;1.98;;;;;;;;;;5032655;28;20657;-85
2021/05/25 11:57:59;;;;;;;3.58;1.08;;;;;;;;;;5031703;28;20669;-85
2021/05/25 12:00:28;;;;;;;2.22;1.33;;;;;;;;;;5030737;28;20132;-85
2021/05/25 12:02:57;;;;;;;4.78;1.23;;;;;;;;;;5027765;28;20046;-85
2021/05/25 12:05:28;;;;;;;3.72;1.50;;;;;;;;;;5026844;28;20058;-86
2021/05/25 12:07:57;;;;;;;5.90;1.30;;;;;;;;;;5011146;28;20048;-85
2021/05/25 12:10:34;;;;;;;2.00;1.30;;;;;;;;;;5011175;28;20862;-84
2021/05/25 12:13:05;;;;;;;2.03;1.25;;;;;;;;;;5012090;28;20077;-84
2021/05/25 12:15:37;;;;;;;2.42;1.30;;;;;;;;;;5012472;28;20060;-85
2021/05/25 12:18:08;;;;;;;3.42;1.60;;;;;;;;;;5010612;28;20046;-85
2021/05/25 12:20:52;;;;;;;6.25;1.63;;;;;;;;;;5011968;28;20057;-85
2021/05/25 12:23:20;;;;;;;4.07;1.65;;;;;;;;;;5016744;28;20487;-84
2021/05/25 12:25:54;;;;;;;4.50;1.45;;;;;;;;;;5026904;28;20876;-84
2021/05/25 12:28:25;;;;;;;5.10;1.55;;;;;;;;;;5010571;28;20139;-84
2021/05/25 12:31:04;;;;;;;2.53;1.45;;;;;;;;;;5010586;28;20449;-84
2021/05/25 12:33:32;;;;;;;11.05;1.70;;;;;;;;;;5011499;28;20845;-83
2021/05/25 12:36:21;;;;;;;5.40;1.45;;;;;;;;;;5010698;28;20741;-84
2021/05/25 12:39:13;;;;;;;1.42;1.20;;;;;;;;;;5010567;28;20049;-84
2021/05/25 12:41:41;;;;;;;3.53;1.25;;;;;;;;;;5010462;28;20088;-83
2021/05/25 12:44:09;;;;;;;1.83;1.10;;;;;;;;;;5010375;28;20387;-83
2021/05/25 12:47:13;;;;;;;2.17;1.10;;;;;;;;;;5026909;28;20089;-84
2021/05/25 12:49:54;;;;;;;1.73;0.90;;;;;;;;;;4990172;28;20060;-85
2021/05/25 12:52:22;;;;;;;3.53;1.20;;;;;;;;;;5030079;28;20080;-85
2021/05/25 12:55:07;;;;;;;2.50;1.02;;;;;;;;;;5016200;28;20101;-85
2021/05/25 12:58:01;;;;;;;4.45;1.20;;;;;;;;;;5010457;28;20077;-84
2021/05/25 13:00:28;;;;;;;2.78;0.80;;;;;;;;;;5007676;28;20115;-85
2021/05/25 13:02:56;;;;;;;2.13;0.70;;;;;;;;;;5011387;28;20111;-85
2021/05/25 13:05:24;;;;;;;2.28;1.08;;;;;;;;;;5010162;28;20104;-85
2021/05/25 13:07:56;;;;;;;4.38;1.00;;;;;;;;;;5011542;28;20589;-84
2021/05/25 13:10:28;;;;;;;8.05;1.40;;;;;;;;;;5011517;28;20178;-85
2021/05/25 13:12:56;;;;;;;3.28;1.38;;;;;;;;;;5010097;28;20137;-85
2021/05/25 13:15:37;;;;;;;2.38;1.02;;;;;;;;;;5009836;28;20061;-84
2021/05/25 13:18:05;;;;;;;9.45;1.23;;;;;;;;;;5011249;28;20084;-85
2021/05/25 13:20:32;;;;;;;3.30;1.20;;;;;;;;;;5010256;28;20065;-85
2021/05/25 13:23:18;;;;;;;4.15;1.17;;;;;;;;;;5009677;28;20042;-85
2021/05/25 13:25:53;;;;;;;4.22;1.10;;;;;;;;;;5010694;28;20592;-82
2021/05/25 13:28:21;;;;;;;3.50;1.50;;;;;;;;;;5009786;28;20065;-81
2021/05/25 13:30:48;;;;;;;4.10;1.75;;;;;;;;;;5009959;28;20089;-81
2021/05/25 13:33:15;;;;;;;3.95;1.50;;;;;;;;;;5010000;28;20133;-82
2021/05/25 13:35:42;;;;;;;4.28;1.50;;;;;;;;;;5010923;28;20514;-82
2021/05/25 13:38:09;;;;;;;5.75;2.55;;;;;;;;;;5009708;28;20050;-83
2021/05/25 13:40:37;;;;;;;3.28;1.63;;;;;;;;;;5010164;28;20061;-82
2021/05/25 13:43:04;;;;;;;2.70;1.35;;;;;;;;;;5009968;28;20077;-84
2021/05/25 13:45:36;;;;;;;3.50;1.58;;;;;;;;;;5009866;28;20771;-82
2021/05/25 13:48:04;;;;;;;7.95;2.15;;;;;;;;;;5020815;28;20049;-83
2021/05/25 13:50:35;;;;;;;4.30;2.17;;;;;;;;;;5029267;28;20054;-83
2021/05/25 13:53:02;;;;;;;7.15;2.55;;;;;;;;;;5030532;28;20053;-82
2021/05/25 13:55:33;;;;;;;4.68;2.42;;;;;;;;;;5031469;28;20605;-82
2021/05/25 13:58:03;;;;;;;7.97;2.40;;;;;;;;;;5034716;28;20099;-82
2021/05/25 14:00:51;;;;;;;6.18;1.77;;;;;;;;;;5033986;28;20076;-81
2021/05/25 14:03:19;;;;;;;6.80;2.75;;;;;;;;;;5035760;28;20565;-81
2021/05/25 14:05:46;;;;;;;9.98;3.95;;;;;;;;;;5040325;28;20077;-81
2021/05/25 14:08:15;;;;;;;3.75;2.30;;;;;;;;;;5023288;28;20450;-82
2021/05/25 14:10:43;;;;;;;8.07;2.60;;;;;;;;;;5014774;28;20050;-81
2021/05/25 14:13:12;;;;;;;9.05;2.75;;;;;;;;;;5013343;28;20410;-81
2021/05/25 14:15:39;;;;;;;8.73;3.28;;;;;;;;;;5014333;28;20772;-81
2021/05/25 14:18:07;;;;;;;14.55;4.63;;;;;;;;;;5029601;28;20088;-82
2021/05/25 14:20:35;;;;;;;5.53;2.65;;;;;;;;;;5030028;28;20773;-82
2021/05/25 14:23:03;;;;;;;14.55;4.40;;;;;;;;;;5014606;28;20800;-82
2021/05/25 14:25:34;;;;;;;7.05;2.53;;;;;;;;;;5029750;28;20517;-82
2021/05/25 14:28:03;;;;;;;4.18;1.90;;;;;;;;;;5028759;28;20076;-83
2021/05/25 14:30:35;;;;;;;2.72;1.50;;;;;;;;;;5033129;28;20490;-83
2021/05/25 14:33:04;;;;;;;4.50;2.22;;;;;;;;;;5034193;28;20686;-83
2021/05/25 14:35:32;;;;;;;2.50;2.20;;;;;;;;;;5034064;28;20041;-83
2021/05/25 14:37:59;;;;;;;2.80;2.45;;;;;;;;;;5033255;28;20084;-83
2021/05/25 14:40:26;;;;;;;6.13;2.38;;;;;;;;;;5034209;28;20448;-82
2021/05/25 14:42:55;;;;;;;5.32;2.47;;;;;;;;;;5033899;28;20518;-83
2021/05/25 14:45:23;;;;;;;5.75;2.40;;;;;;;;;;5033986;28;20437;-83
2021/05/25 14:47:51;;;;;;;4.18;2.10;;;;;;;;;;5034502;28;20085;-83
2021/05/25 14:50:29;;;;;;;5.30;2.50;;;;;;;;;;5032947;28;20529;-83
2021/05/25 14:53:11;;;;;;;3.90;2.15;;;;;;;;;;5034298;28;20489;-83
2021/05/25 14:55:40;;;;;;;4.00;2.17;;;;;;;;;;5017206;28;20073;-84
2021/05/25 14:58:07;;;;;;;2.65;2.10;;;;;;;;;;5013356;28;20506;-83
2021/05/25 15:03:33;;;;;;;4.68;1.73;;;;;;;;;;5014128;28;20069;-83
2021/05/25 15:06:12;;;;;;;2.42;1.70;;;;;;;;;;5011513;28;20069;-83
2021/05/25 15:08:44;;;;;;;3.65;1.70;;;;;;;;;;5014195;28;20073;-83